• Join FlightAware (Why Join?)
  • Login
  • US Flag 
12:46AM EDT


 

Airport Tracker/Info


-or-


 

Live Flight TrackerFlight Track Log ✈ LBQ792 ✈ 07-May-2013 ✈ KAGC - KIAD

Flight Track Log - Related Links

Times and Time Zones

All times are in EDT time to prevent confusion due to time zone crossing. See the LBQ792 flight status page for this flight to view local times or setup timezone preferences in your user account.

Time Position Orientation Groundspeed Altitude Reporting Facility
EDT Latitude Longitude Course Direction KTS MPH feet Rate Location/Type
12:50AM 39.8350 -79.1206 126° Southeast 252 290 14,900  Level Washington Center
12:51AM 39.7994 -79.0539 125° Southeast 246 283 15,000  Climbing Washington Center
12:52AM 39.7661 -78.9819 121° Southeast 241 277 15,000  Level Washington Center
12:53AM 39.7203 -78.9017 127° Southeast 246 283 15,100  Climbing Washington Center
12:54AM 39.6867 -78.8353 123° Southeast 240 276 15,100  Level Washington Center
12:55AM 40.1350 -79.5962 126° Southeast  Level FlightAware Approximate
12:55AM 39.6489 -78.7664 125° Southeast 235 270 15,100  Level Washington Center
12:56AM 39.6133 -78.6975 124° Southeast 235 270 14,800 -900 Descending Washington Center
12:57AM 39.5756 -78.6231 123° Southeast 235 270 13,400 -1,440 Descending Washington Center
12:58AM 39.5336 -78.5514 127° Southeast 240 276 12,000 -1,380 Descending Washington Center
12:59AM 39.4978 -78.4800 123° Southeast 240 276 10,700 -1,380 Descending Washington Center
01:00AM 39.4619 -78.4139 125° Southeast 240 276 9,300 -840 Descending Washington Center
01:01AM 39.4258 -78.3481 125° Southeast 233 268 9,100 -120 Descending Washington Center
01:02AM 39.3939 -78.2878 124° Southeast 219 252 9,100 -120 Level Washington Center
01:03AM 39.3619 -78.2275 124° Southeast 214 246 8,900 -900 Descending Washington Center
01:04AM 39.3469 -78.1492 104° East 209 241 7,400 -1,440 Descending Washington Center
01:05AM 39.3297 -78.0708 106° East 214 246 6,000 -780 Descending Washington Center
01:06AM 39.3186 -78.0006 102° East 209 241 5,900 -60 Descending Washington Center
01:07AM 39.3056 -77.9306 104° East 202 232 5,900  Level Washington Center
01:09AM 39.2333 -77.7833 122° Southeast 198 228 5,900 -240 Level Potomac TRACON
01:10AM 39.2000 -77.7333 131° Southeast 210 242 5,100 -780 Descending Potomac TRACON
01:11AM 39.1667 -77.6833 131° Southeast 220 253 4,400 -600 Descending Potomac TRACON
01:12AM 39.1167 -77.6333 142° Southeast 223 257 3,900 -720 Descending Potomac TRACON
01:13AM 39.0833 -77.5833 131° Southeast 207 238 3,000 -900 Descending Potomac TRACON
01:14AM 39.0500 -77.5333 131° Southeast 194 223 2,200 -840 Descending Potomac TRACON
01:15AM 39.0167 -77.4833 131° Southeast 179 206 1,500 -660 Descending Potomac TRACON
01:16AM 38.9833 -77.4667 159° South 124 143 900 -600 Descending Potomac TRACON
01:18AM 38.9474 -77.4599 142° Southeast  Level Estimated
01:25AM 38.9474 -77.4599 142° Southeast  Level Estimated
01:26AM 38.9474 -77.4599 142° Southeast  Level Estimated
01:27AM 38.9474 -77.4599 142° Southeast  Level Estimated
01:28AM 38.9474 -77.4599 142° Southeast  Level Estimated